createdAt,value
2019-05-14T00:01:47.189Z,7.35
2019-05-14T00:04:15.671Z,7.28
2019-05-14T00:06:44.158Z,7.26
2019-05-14T00:09:12.662Z,7.26
2019-05-14T00:11:42.113Z,7.24
2019-05-14T00:14:11.604Z,7.19
2019-05-14T00:16:42.300Z,7.08
2019-05-14T00:19:11.173Z,7.08
2019-05-14T00:21:42.106Z,7.09
2019-05-14T00:24:11.372Z,7.08
2019-05-14T00:26:42.369Z,7.11
2019-05-14T00:29:11.373Z,7.12
2019-05-14T00:31:42.219Z,7.08
2019-05-14T00:34:11.178Z,7.08
2019-05-14T00:36:41.658Z,7.09
2019-05-14T00:39:11.252Z,7.05
2019-05-14T00:41:41.919Z,7.02
2019-05-14T00:44:10.117Z,7.03
2019-05-14T00:46:40.943Z,6.94
2019-05-14T00:49:08.960Z,6.81
2019-05-14T00:51:37.446Z,6.69
2019-05-14T00:54:06.054Z,6.62
2019-05-14T00:56:34.549Z,6.55
2019-05-14T00:59:03.120Z,6.50
2019-05-14T01:01:31.917Z,6.54
2019-05-14T01:04:01.268Z,6.53
2019-05-14T01:06:31.484Z,6.52
2019-05-14T01:09:01.379Z,6.48
2019-05-14T01:11:31.498Z,6.48
2019-05-14T01:14:01.674Z,6.53
2019-05-14T01:16:31.801Z,6.61
2019-05-14T01:19:02.021Z,6.62
2019-05-14T01:21:31.242Z,6.65
2019-05-14T01:24:01.839Z,6.64
2019-05-14T01:26:31.066Z,6.64
2019-05-14T01:29:01.447Z,6.65
2019-05-14T01:31:31.499Z,6.64
2019-05-14T01:34:02.178Z,6.64
2019-05-14T01:36:32.059Z,6.55
2019-05-14T01:39:01.803Z,6.45
2019-05-14T01:41:31.745Z,6.39
2019-05-14T01:44:01.788Z,6.37
2019-05-14T01:46:31.634Z,6.37
2019-05-14T01:49:01.556Z,6.28
2019-05-14T01:51:31.533Z,6.18
2019-05-14T01:54:01.423Z,6.18
2019-05-14T01:56:31.967Z,6.17
2019-05-14T01:59:01.769Z,6.04
2019-05-14T02:01:31.507Z,5.86
2019-05-14T02:04:02.343Z,5.75
2019-05-14T02:06:31.812Z,5.70
2019-05-14T02:09:01.962Z,5.67
2019-05-14T02:11:32.102Z,5.65
2019-05-14T02:14:02.415Z,5.66
2019-05-14T02:16:31.509Z,5.65
2019-05-14T02:19:01.422Z,5.57
2019-05-14T02:21:31.719Z,5.51
2019-05-14T02:24:02.066Z,5.57
2019-05-14T02:26:31.557Z,5.63
2019-05-14T02:29:02.019Z,5.65
2019-05-14T02:31:30.653Z,5.63
2019-05-14T02:33:59.388Z,5.57
2019-05-14T02:36:30.858Z,5.53
2019-05-14T02:39:00.390Z,5.55
2019-05-14T02:41:29.932Z,5.56
2019-05-14T02:43:59.339Z,5.59
2019-05-14T02:46:29.616Z,5.60
2019-05-14T02:48:59.506Z,5.51
2019-05-14T02:51:29.969Z,5.51
2019-05-14T02:53:59.267Z,5.46
2019-05-14T02:56:29.497Z,5.41
2019-05-14T02:58:59.983Z,5.43
2019-05-14T03:01:30.127Z,5.44
2019-05-14T03:03:59.845Z,5.37
2019-05-14T03:06:29.279Z,5.36
2019-05-14T03:08:59.945Z,5.42
2019-05-14T03:11:29.724Z,5.37
2019-05-14T03:13:59.874Z,5.36
2019-05-14T03:16:34.609Z,5.39
2019-05-14T03:18:59.695Z,5.41
2019-05-14T03:21:30.424Z,5.42
2019-05-14T03:24:00.820Z,5.39
2019-05-14T03:26:29.654Z,5.37
2019-05-14T03:29:00.058Z,5.36
2019-05-14T03:31:33.228Z,5.40
2019-05-14T03:34:02.905Z,5.44
2019-05-14T03:36:34.360Z,5.30
2019-05-14T03:38:59.752Z,5.18
2019-05-14T03:41:30.633Z,5.11
2019-05-14T03:44:00.130Z,5.13
2019-05-14T03:46:44.120Z,5.10
2019-05-14T03:49:00.057Z,5.08
2019-05-14T03:51:29.798Z,5.04
2019-05-14T03:54:06.635Z,5.01
2019-05-14T03:56:29.958Z,5.00
2019-05-14T03:58:59.989Z,5.03
2019-05-14T04:01:29.803Z,5.00
2019-05-14T04:03:59.379Z,5.01
2019-05-14T04:06:30.427Z,5.05
2019-05-14T04:09:00.824Z,5.03
2019-05-14T04:11:30.736Z,5.05
2019-05-14T04:14:01.212Z,4.99
2019-05-14T04:16:32.977Z,4.95
2019-05-14T04:19:02.743Z,4.90
2019-05-14T04:21:32.766Z,4.93
2019-05-14T04:24:03.914Z,5.00
2019-05-14T04:26:53.348Z,4.95
2019-05-14T04:29:10.112Z,4.93
2019-05-14T04:31:42.355Z,4.89
2019-05-14T04:34:12.992Z,4.84
2019-05-14T04:36:43.579Z,4.80
2019-05-14T10:47:38.900Z,14.01
2019-05-14T10:50:13.342Z,13.90
2019-05-14T10:52:39.495Z,14.14
2019-05-14T10:55:08.363Z,14.45
2019-05-14T10:57:36.838Z,14.47
2019-05-14T11:00:09.210Z,14.25
2019-05-14T11:02:38.796Z,13.90
2019-05-14T11:05:07.743Z,13.66
2019-05-14T11:07:41.409Z,13.50
2019-05-14T11:10:09.305Z,13.57
2019-05-14T11:12:39.605Z,13.66
2019-05-14T11:15:09.621Z,13.63
2019-05-14T11:17:40.660Z,13.89
2019-05-14T11:20:08.650Z,14.07
2019-05-14T11:22:37.362Z,13.89
2019-05-14T11:25:09.179Z,13.91
2019-05-14T11:27:38.814Z,14.41
2019-05-14T11:30:08.939Z,14.64
2019-05-14T11:32:38.494Z,14.75
2019-05-14T11:35:12.712Z,14.76
2019-05-14T11:37:41.337Z,14.83
2019-05-14T11:40:12.847Z,14.79
2019-05-14T11:42:41.524Z,14.58
2019-05-14T11:45:10.673Z,14.39
2019-05-14T11:47:39.221Z,14.36
2019-05-14T11:50:10.188Z,14.14
2019-05-14T11:52:39.028Z,14.26
2019-05-14T11:55:09.147Z,14.48
2019-05-14T11:57:37.654Z,14.31
2019-05-14T12:00:09.233Z,14.23
2019-05-14T12:02:38.451Z,14.29
2019-05-14T12:05:08.803Z,14.31
2019-05-14T12:07:38.917Z,14.31
2019-05-14T12:10:09.052Z,14.19
2019-05-14T12:12:37.810Z,14.09
2019-05-14T12:15:10.138Z,14.15
2019-05-14T12:17:40.355Z,14.15
2019-05-14T12:20:09.654Z,14.13
2019-05-14T12:22:39.297Z,14.08
2019-05-14T12:25:08.477Z,14.39
2019-05-14T12:27:38.755Z,14.26
2019-05-14T12:30:09.678Z,14.04
2019-05-14T12:32:39.506Z,13.81
2019-05-14T12:35:08.762Z,13.84
2019-05-14T12:37:38.741Z,13.85
2019-05-14T12:40:09.067Z,13.97
2019-05-14T12:42:39.180Z,14.01
2019-05-14T12:45:10.417Z,13.95
2019-05-14T12:47:39.032Z,13.93
2019-05-14T12:50:09.379Z,13.90
2019-05-14T12:52:38.838Z,13.80
2019-05-14T12:55:09.151Z,13.87
2019-05-14T12:57:39.372Z,13.87
2019-05-14T13:00:09.355Z,13.80
2019-05-14T13:02:37.872Z,13.78
2019-05-14T13:05:09.060Z,13.86
2019-05-14T13:07:41.472Z,13.80
2019-05-14T13:10:09.137Z,13.74
2019-05-14T13:12:39.103Z,13.77
2019-05-14T13:15:08.899Z,13.80
2019-05-14T13:17:38.971Z,13.86
2019-05-14T13:20:13.241Z,13.83
2019-05-14T13:22:45.613Z,13.91
2019-05-14T13:25:10.681Z,13.93
2019-05-14T13:27:39.659Z,14.08
2019-05-14T13:30:09.490Z,14.12
2019-05-14T13:32:39.484Z,14.08
2019-05-14T13:35:13.085Z,14.16
2019-05-14T13:37:39.971Z,14.15
2019-05-14T13:40:09.608Z,14.14
2019-05-14T13:42:39.923Z,14.06
2019-05-14T13:45:10.454Z,13.99
2019-05-14T13:47:39.174Z,14.00
2019-05-14T13:50:08.673Z,13.99
2019-05-14T13:52:40.441Z,13.93
2019-05-14T13:55:09.599Z,13.91
2019-05-14T13:57:39.847Z,13.89
2019-05-14T14:00:13.006Z,13.88
2019-05-14T14:02:41.524Z,13.91
2019-05-14T14:05:10.292Z,13.90
2019-05-14T14:07:39.761Z,13.96
2019-05-14T14:10:09.973Z,13.95
2019-05-14T14:12:40.300Z,13.97
2019-05-14T14:15:09.983Z,14.00
2019-05-14T14:17:39.447Z,13.99
2019-05-14T14:20:09.256Z,13.87
2019-05-14T14:22:40.060Z,13.78
2019-05-14T14:25:10.619Z,13.79
2019-05-14T14:27:41.110Z,13.75
2019-05-14T14:30:10.394Z,13.81
2019-05-14T14:32:40.756Z,13.85
2019-05-14T14:35:09.785Z,13.96
2019-05-14T14:37:39.786Z,13.89
2019-05-14T14:40:10.529Z,13.82
2019-05-14T14:42:40.457Z,13.76
2019-05-14T14:45:09.845Z,13.75
2019-05-14T14:47:39.399Z,13.75
2019-05-14T14:50:09.295Z,13.71
2019-05-14T14:52:37.868Z,13.72
2019-05-14T14:55:07.052Z,13.78
2019-05-14T14:57:45.353Z,13.73
2019-05-14T15:00:11.404Z,13.69
2019-05-14T15:02:41.175Z,13.69
2019-05-14T15:05:14.277Z,13.72
2019-05-14T15:07:44.556Z,13.78
2019-05-14T15:10:13.877Z,13.78
2019-05-14T15:12:42.382Z,13.81
2019-05-14T15:15:11.367Z,13.95
2019-05-14T15:17:39.894Z,13.97
2019-05-14T15:20:10.286Z,13.91
2019-05-14T15:22:39.489Z,13.83
2019-05-14T15:25:09.126Z,14.06
2019-05-14T15:27:38.705Z,14.32
2019-05-14T15:30:11.318Z,14.27
2019-05-14T15:35:32.732Z,13.79
2019-05-14T15:38:01.279Z,13.72
2019-05-14T15:40:29.923Z,13.68
2019-05-14T15:43:01.998Z,13.57
2019-05-14T15:45:30.271Z,13.50
2019-05-14T15:50:53.475Z,13.44
2019-05-14T15:56:21.651Z,13.50
2019-05-14T15:59:01.105Z,13.40
2019-05-14T16:01:28.663Z,13.38
2019-05-14T16:03:58.840Z,13.38
2019-05-14T16:06:27.501Z,13.37
2019-05-14T16:08:58.855Z,13.34
2019-05-14T16:11:28.608Z,13.33
2019-05-14T16:13:56.681Z,13.31
2019-05-14T16:16:28.713Z,13.31
2019-05-14T16:18:56.642Z,13.30
2019-05-14T16:21:30.062Z,13.24
2019-05-14T16:23:58.891Z,13.23
2019-05-14T16:26:29.227Z,13.18
2019-05-14T16:28:59.289Z,13.15
2019-05-14T16:31:31.679Z,13.17
2019-05-14T16:34:00.236Z,13.05
2019-05-14T16:36:28.987Z,13.01
2019-05-14T16:38:58.496Z,13.06
2019-05-14T16:41:29.059Z,13.09
2019-05-14T16:43:58.727Z,13.08
2019-05-14T16:46:28.887Z,13.06
2019-05-14T16:48:58.235Z,12.86
2019-05-14T16:51:26.840Z,12.75
2019-05-14T16:53:55.394Z,12.65
2019-05-14T16:56:23.904Z,12.60
2019-05-14T16:58:52.453Z,12.58
2019-05-14T17:01:20.960Z,12.57
2019-05-14T17:03:51.252Z,12.59
2019-05-14T17:17:22.326Z,12.55
2019-05-14T17:19:50.841Z,12.42
2019-05-14T17:22:28.473Z,12.46
2019-05-14T17:24:49.683Z,12.43
2019-05-14T17:27:18.226Z,12.40
2019-05-14T17:29:48.532Z,12.37
2019-05-14T17:32:18.803Z,12.33
2019-05-14T17:34:49.098Z,12.31
2019-05-14T17:37:19.081Z,12.31
2019-05-14T17:39:48.989Z,12.27
2019-05-14T17:42:19.321Z,12.21
2019-05-14T17:44:48.343Z,12.17
2019-05-14T17:47:18.333Z,12.20
2019-05-14T17:49:48.594Z,12.16
2019-05-14T17:52:21.734Z,12.16
2019-05-14T17:54:48.456Z,12.17
2019-05-14T17:57:23.674Z,12.11
2019-05-14T17:59:49.601Z,12.02
2019-05-14T18:02:19.129Z,11.97
2019-05-14T18:04:48.786Z,11.89
2019-05-14T18:07:19.126Z,11.87
2019-05-14T18:09:47.599Z,11.86
2019-05-14T18:12:18.508Z,11.87
2019-05-14T18:14:48.125Z,11.82
2019-05-14T18:17:18.880Z,11.82
2019-05-14T18:19:48.359Z,11.77
2019-05-14T18:22:19.196Z,11.71
2019-05-14T18:24:48.637Z,11.71
2019-05-14T18:27:19.545Z,11.66
2019-05-14T18:29:48.845Z,11.55
2019-05-14T18:32:18.988Z,11.51
2019-05-14T18:34:48.642Z,11.40
2019-05-14T18:37:18.306Z,11.35
2019-05-14T18:39:48.367Z,11.37
2019-05-14T18:42:18.996Z,11.23
2019-05-14T18:44:49.617Z,11.23
2019-05-14T18:47:20.075Z,11.25
2019-05-14T18:49:48.609Z,11.23
2019-05-14T18:52:18.412Z,11.18
2019-05-14T18:54:48.364Z,11.20
2019-05-14T18:57:18.087Z,11.18
2019-05-14T18:59:49.124Z,11.17
2019-05-14T19:02:18.450Z,11.19
2019-05-14T19:04:48.447Z,11.17
2019-05-14T19:07:18.930Z,11.12
2019-05-14T19:09:49.421Z,10.99
2019-05-14T19:12:18.986Z,10.88
2019-05-14T19:14:49.208Z,10.80
2019-05-14T19:17:18.947Z,10.69
2019-05-14T19:19:49.640Z,10.65
2019-05-14T19:22:18.559Z,10.63
2019-05-14T19:24:49.294Z,10.61
2019-05-14T19:27:18.650Z,10.60
2019-05-14T19:29:55.205Z,10.54
2019-05-14T19:32:25.401Z,10.55
2019-05-14T19:35:14.883Z,10.53
2019-05-14T19:37:48.497Z,10.56
2019-05-14T19:40:19.000Z,10.55
2019-05-14T19:42:49.823Z,10.50
2019-05-14T19:45:18.664Z,10.50
2019-05-14T19:47:51.742Z,10.53
2019-05-14T19:50:21.402Z,10.54
2019-05-14T19:53:04.024Z,10.53
2019-05-14T20:01:19.337Z,10.52
2019-05-14T20:03:49.110Z,10.54
2019-05-14T20:06:19.691Z,10.46
2019-05-14T20:08:51.241Z,10.45
2019-05-14T20:11:19.927Z,10.38
2019-05-14T20:13:48.749Z,10.31
2019-05-14T20:16:18.469Z,10.26
2019-05-14T20:18:48.759Z,10.25
2019-05-14T20:21:18.440Z,10.21
2019-05-14T20:23:48.095Z,10.18
2019-05-14T20:26:19.080Z,10.21
2019-05-14T20:28:51.269Z,10.22
2019-05-14T20:31:31.336Z,10.24
2019-05-14T20:34:04.753Z,10.23
2019-05-14T20:36:39.007Z,10.20
2019-05-14T20:39:08.689Z,10.19
2019-05-14T20:41:39.858Z,10.16
2019-05-14T20:44:10.447Z,10.17
2019-05-14T20:46:39.581Z,10.17
2019-05-14T20:49:08.956Z,10.16
2019-05-14T20:51:39.070Z,10.20
2019-05-14T20:54:08.990Z,10.23
2019-05-14T20:56:40.467Z,10.22
2019-05-14T20:59:14.790Z,10.19
2019-05-14T21:01:45.834Z,10.19
2019-05-14T21:04:14.712Z,10.17
2019-05-14T21:06:43.578Z,10.11
2019-05-14T21:12:09.120Z,10.08
2019-05-14T21:14:40.970Z,9.81
2019-05-14T21:17:09.238Z,9.50
2019-05-14T21:19:38.124Z,9.14
2019-05-14T21:22:08.370Z,9.01
2019-05-14T21:24:39.150Z,8.66
2019-05-14T21:27:09.282Z,8.57
2019-05-14T21:29:38.590Z,8.58
2019-05-14T21:32:08.231Z,8.58
2019-05-14T21:34:38.354Z,8.64
2019-05-14T21:37:08.994Z,8.51
2019-05-14T21:39:38.384Z,8.38
2019-05-14T21:42:10.832Z,8.31
2019-05-14T21:44:39.278Z,8.37
2019-05-14T21:47:08.411Z,8.43
2019-05-14T21:49:38.965Z,8.47
2019-05-14T21:52:09.052Z,8.52
2019-05-14T21:54:39.521Z,8.62
2019-05-14T21:57:11.741Z,8.76
2019-05-14T21:59:39.620Z,8.85
2019-05-14T22:02:08.949Z,8.88
2019-05-14T22:04:38.501Z,8.90
2019-05-14T22:07:09.112Z,8.91
2019-05-14T22:09:40.555Z,8.84
2019-05-14T22:12:08.036Z,8.82
2019-05-14T22:14:37.993Z,8.81
2019-05-14T22:17:08.005Z,8.84
2019-05-14T22:19:38.427Z,8.75
2019-05-14T22:22:08.010Z,8.76
2019-05-14T22:24:38.420Z,8.74
2019-05-14T22:27:09.444Z,8.71
2019-05-14T22:29:37.378Z,8.66
2019-05-14T22:32:08.527Z,8.63
2019-05-14T22:34:38.453Z,8.64
2019-05-14T22:37:07.621Z,8.65
2019-05-14T22:39:38.863Z,8.62
2019-05-14T22:42:09.029Z,8.63
2019-05-14T22:44:42.994Z,8.65
2019-05-14T22:47:11.752Z,8.72
2019-05-14T22:49:42.082Z,8.71
2019-05-14T22:52:11.756Z,8.74
2019-05-14T22:54:41.459Z,8.77
2019-05-14T22:57:10.396Z,8.76
2019-05-14T22:59:39.394Z,8.75
2019-05-14T23:02:11.246Z,8.69
2019-05-14T23:04:40.569Z,8.72
2019-05-14T23:07:09.091Z,8.71
2019-05-14T23:09:39.163Z,8.69
2019-05-14T23:12:12.026Z,8.62
2019-05-14T23:14:39.072Z,8.57
2019-05-14T23:17:08.253Z,8.60
2019-05-14T23:19:38.369Z,8.62
2019-05-14T23:22:06.843Z,8.64
2019-05-14T23:24:35.337Z,8.67
2019-05-14T23:27:04.019Z,8.67
2019-05-14T23:29:32.855Z,8.68
2019-05-14T23:32:01.420Z,8.71
2019-05-14T23:34:29.902Z,8.70
2019-05-14T23:36:59.039Z,8.70
2019-05-14T23:39:28.783Z,8.70
2019-05-14T23:41:58.311Z,8.75
2019-05-14T23:44:28.783Z,8.72
2019-05-14T23:46:58.799Z,8.71
2019-05-14T23:49:27.762Z,8.74
2019-05-14T23:51:56.436Z,8.75
2019-05-14T23:54:28.975Z,8.78
2019-05-14T23:56:58.438Z,8.85
2019-05-14T23:59:29.238Z,8.82
